Time;durP1;ratioP1;P1;durP2;ratioP2;P2;SDS_P1;SDS_P2;PMS_P1;PMS_P2;Temp;Humidity;BMP_temperature;BMP_pressure;BME280_temperature;BME280_humidity;BME280_pressure;Samples;Min_cycle;Max_cycle;Signal;HPM_P1;HPM_P2
2023/10/05 00:03:44;;;;;;;6.72;1.70;;;;;;;13.96;84.48;98953.78;5014607;28;20041;-80
2023/10/05 00:06:13;;;;;;;5.82;1.58;;;;;;;13.92;84.60;98953.34;4997688;28;20140;-79
2023/10/05 00:08:44;;;;;;;2.40;1.23;;;;;;;13.90;84.99;98949.25;4998190;28;20166;-79
2023/10/05 00:11:23;;;;;;;12.77;2.25;;;;;;;14.11;84.49;98952.66;5014463;28;20463;-79
2023/10/05 00:13:53;;;;;;;4.15;1.52;;;;;;;14.02;85.02;98948.50;5032031;28;20056;-79
2023/10/05 00:16:23;;;;;;;5.72;1.60;;;;;;;13.99;84.76;98945.38;4997995;28;20037;-79
2023/10/05 00:18:50;;;;;;;6.65;1.90;;;;;;;14.01;84.50;98941.50;5015089;28;20456;-79
2023/10/05 00:21:19;;;;;;;9.07;1.70;;;;;;;13.98;84.85;98946.38;5014253;28;20048;-79
2023/10/05 00:23:56;;;;;;;6.57;1.85;;;;;;;14.04;84.73;98953.63;5014356;28;20045;-79
2023/10/05 00:26:28;;;;;;;6.65;1.50;;;;;;;13.98;84.53;98935.72;5002698;28;20084;-80
2023/10/05 00:29:01;;;;;;;8.98;1.55;;;;;;;13.95;84.31;98934.28;5003571;28;20395;-80
2023/10/05 00:31:28;;;;;;;8.25;1.73;;;;;;;13.91;84.94;98935.69;5018938;28;20128;-79
2023/10/05 00:33:56;;;;;;;8.60;2.13;;;;;;;13.96;84.64;98940.44;5035485;28;20072;-78
2023/10/05 00:36:31;;;;;;;6.38;1.70;;;;;;;13.95;84.96;98936.09;5020328;28;20058;-78
2023/10/05 00:39:01;;;;;;;7.15;2.05;;;;;;;13.85;85.06;98941.81;5003508;28;20045;-78
2023/10/05 00:41:28;;;;;;;3.60;2.35;;;;;;;13.92;85.29;98941.84;5037124;28;20431;-78
2023/10/05 00:43:55;;;;;;;6.28;1.83;;;;;;;13.84;85.59;98952.69;5018699;28;20069;-78
2023/10/05 00:46:22;;;;;;;4.10;1.85;;;;;;;13.85;86.06;98943.66;5019849;28;20124;-77
2023/10/05 00:49:06;;;;;;;8.30;1.67;;;;;;;13.67;86.59;98954.00;5036921;28;20048;-80
2023/10/05 00:51:34;;;;;;;9.98;2.05;;;;;;;13.78;86.80;98953.47;5035392;28;20102;-81
2023/10/05 00:54:10;;;;;;;5.55;1.60;;;;;;;13.72;87.05;98948.88;5035089;28;20045;-78
2023/10/05 00:56:40;;;;;;;9.32;2.30;;;;;;;13.79;87.13;98953.28;5019769;28;20041;-80
2023/10/05 00:59:09;;;;;;;3.67;1.50;;;;;;;13.75;87.13;98962.66;5002237;28;20443;-80
2023/10/05 01:04:26;;;;;;;3.95;1.48;;;;;;;13.73;87.07;98958.56;5007322;28;20053;-80
2023/10/05 01:06:56;;;;;;;9.38;1.58;;;;;;;13.68;87.38;98955.63;5037573;28;20068;-79
2023/10/05 01:12:11;;;;;;;7.18;1.77;;;;;;;13.54;88.58;98960.91;5019726;28;20033;-80
2023/10/05 01:14:46;;;;;;;7.70;1.77;;;;;;;13.57;88.56;98965.00;5004879;28;20068;-80
2023/10/05 01:17:12;;;;;;;5.57;1.50;;;;;;;13.57;88.26;98963.16;5002101;28;20068;-77
2023/10/05 01:19:39;;;;;;;7.57;2.35;;;;;;;13.59;88.26;98962.97;5040450;28;20046;-80
2023/10/05 01:22:11;;;;;;;3.65;1.90;;;;;;;13.61;88.41;98971.59;5034881;28;20045;-80
2023/10/05 01:24:38;;;;;;;5.97;1.88;;;;;;;13.53;88.72;98963.72;5033802;28;20132;-80
2023/10/05 01:27:04;;;;;;;9.10;1.80;;;;;;;13.52;88.73;98962.91;5017296;28;20137;-80
2023/10/05 01:29:31;;;;;;;6.28;1.70;;;;;;;13.49;88.92;98973.97;5000628;28;20132;-79
2023/10/05 01:31:56;;;;;;;3.85;1.58;;;;;;;13.49;88.83;98965.13;5016946;28;20045;-82
2023/10/05 01:34:24;;;;;;;11.40;1.70;;;;;;;13.41;89.12;98970.59;5001151;28;20045;-82
2023/10/05 01:36:53;;;;;;;7.63;1.95;;;;;;;13.40;89.48;98967.13;5017016;28;20041;-82
2023/10/05 01:39:21;;;;;;;7.38;2.30;;;;;;;13.38;89.64;98965.66;5016690;28;20069;-81
2023/10/05 01:41:48;;;;;;;5.90;1.90;;;;;;;13.41;89.51;98966.09;5033434;28;20053;-79
2023/10/05 01:44:17;;;;;;;5.60;1.85;;;;;;;13.47;90.33;98962.66;5032872;28;20106;-77
2023/10/05 01:46:44;;;;;;;7.22;2.10;;;;;;;13.31;90.23;98962.94;5033076;28;20045;-75
2023/10/05 01:49:10;;;;;;;7.72;1.60;;;;;;;13.31;90.17;98972.78;5000604;28;20045;-79
2023/10/05 01:51:35;;;;;;;4.55;1.73;;;;;;;13.14;91.42;98971.38;5016398;28;20490;-78
2023/10/05 01:54:16;;;;;;;7.60;1.90;;;;;;;13.17;91.60;98979.84;5032825;28;20395;-77
2023/10/05 01:56:44;;;;;;;5.80;1.88;;;;;;;13.14;91.69;98969.56;5002378;28;20154;-78
2023/10/05 01:59:12;;;;;;;6.05;1.70;;;;;;;13.11;91.70;98958.44;5016885;28;20041;-78
2023/10/05 02:01:40;;;;;;;6.95;1.80;;;;;;;13.06;92.47;98967.00;5033344;28;20096;-78
2023/10/05 02:04:07;;;;;;;4.50;1.75;;;;;;;13.11;93.04;98969.94;5016937;28;20045;-79
2023/10/05 02:06:40;;;;;;;7.22;1.85;;;;;;;13.14;92.97;98966.06;5034873;28;20037;-78
2023/10/05 02:09:09;;;;;;;6.45;1.90;;;;;;;13.08;92.87;98975.66;5017791;28;20045;-78
2023/10/05 02:11:36;;;;;;;4.90;1.85;;;;;;;13.01;93.05;98964.06;5034078;28;20467;-79
2023/10/05 02:14:05;;;;;;;5.10;1.80;;;;;;;12.94;93.32;98955.16;5032758;28;20045;-78
2023/10/05 02:16:31;;;;;;;9.52;2.05;;;;;;;12.76;95.25;98965.41;5015960;28;20072;-78
2023/10/05 02:18:57;;;;;;;5.78;2.05;;;;;;;12.80;95.09;98960.53;5032247;28;20049;-79
2023/10/05 02:21:36;;;;;;;6.00;1.77;;;;;;;12.89;94.63;98962.91;5032535;28;20186;-79
2023/10/05 02:24:15;;;;;;;7.80;2.08;;;;;;;12.83;95.04;98957.50;5032265;28;20049;-79
2023/10/05 02:27:26;;;;;;;6.25;1.90;;;;;;;12.90;95.00;98971.72;5016746;28;20523;-80
2023/10/05 02:29:31;;;;;;;7.53;2.00;;;;;;;12.78;95.84;98966.06;5008521;28;20049;-78
2023/10/05 02:34:38;;;;;;;6.57;2.30;;;;;;;12.95;94.93;98970.13;5032515;28;20191;-78
2023/10/05 02:37:05;;;;;;;3.95;1.70;;;;;;;12.88;94.76;98976.41;5016800;28;20053;-81
2023/10/05 02:39:38;;;;;;;4.75;1.88;;;;;;;12.88;94.83;98974.59;4999519;28;20472;-80
2023/10/05 02:42:06;;;;;;;10.15;2.40;;;;;;;12.75;95.29;98978.91;4999443;28;20041;-81
2023/10/05 02:44:35;;;;;;;5.15;1.83;;;;;;;12.93;95.05;98985.47;4999377;28;20065;-80
2023/10/05 02:47:08;;;;;;;8.77;2.13;;;;;;;12.90;95.40;98967.19;4983068;28;20049;-79
2023/10/05 02:49:40;;;;;;;11.48;1.80;;;;;;;12.82;96.09;98977.97;5000461;28;20139;-79
2023/10/05 02:52:07;;;;;;;5.13;2.65;;;;;;;12.91;94.91;98982.19;4998708;28;20053;-78
2023/10/05 02:54:32;;;;;;;4.72;1.73;;;;;;;12.83;95.21;98981.47;4982152;28;20129;-77
2023/10/05 02:56:58;;;;;;;5.53;2.13;;;;;;;12.87;95.06;98980.91;4981911;28;20084;-78
2023/10/05 02:59:29;;;;;;;4.72;1.90;;;;;;;12.91;95.47;98978.69;5014390;28;20088;-77
2023/10/05 03:02:00;;;;;;;7.15;1.83;;;;;;;12.83;95.50;98981.47;5014948;28;20057;-73
2023/10/05 03:04:44;;;;;;;8.80;1.90;;;;;;;12.84;95.12;98977.81;5030731;28;20073;-73
2023/10/05 03:07:16;;;;;;;7.65;2.97;;;;;;;12.95;95.47;98980.78;4997568;28;20049;-74
2023/10/05 03:09:43;;;;;;;11.18;2.10;;;;;;;12.90;95.52;98977.06;5014180;28;20148;-73
2023/10/05 03:12:11;;;;;;;7.82;2.00;;;;;;;12.86;95.41;98992.59;4997495;28;20049;-73
2023/10/05 03:14:37;;;;;;;6.22;2.00;;;;;;;12.88;95.26;98990.56;4997922;28;20041;-76
2023/10/05 03:17:07;;;;;;;8.00;2.03;;;;;;;12.91;95.35;98992.88;5019129;28;20055;-74
2023/10/05 03:19:36;;;;;;;5.13;1.98;;;;;;;12.87;95.24;98996.09;5045757;28;20048;-74
2023/10/05 03:22:05;;;;;;;10.15;2.22;;;;;;;12.86;95.48;99002.41;4985169;28;20045;-75
2023/10/05 03:24:33;;;;;;;9.63;2.17;;;;;;;12.88;95.15;98992.41;5018462;28;20048;-74
2023/10/05 03:27:03;;;;;;;8.20;2.20;;;;;;;12.99;95.07;98999.91;5034950;28;20516;-81
2023/10/05 03:29:30;;;;;;;6.60;2.25;;;;;;;13.06;94.47;98999.00;5035257;28;20040;-73
2023/10/05 03:34:39;;;;;;;5.95;2.00;;;;;;;13.14;94.06;98990.88;5022487;28;20103;-73
2023/10/05 03:37:12;;;;;;;5.40;2.00;;;;;;;13.00;94.05;98996.25;5056226;28;20040;-76
2023/10/05 03:42:31;;;;;;;3.35;2.10;;;;;;;12.90;94.63;98985.84;5025294;28;20052;-70
2023/10/05 03:45:03;;;;;;;4.90;2.08;;;;;;;12.85;94.76;99000.78;5024960;28;20044;-72
2023/10/05 03:47:37;;;;;;;4.53;2.30;;;;;;;12.94;95.51;98999.66;5021474;28;20046;-73
2023/10/05 03:50:06;;;;;;;4.95;2.15;;;;;;;12.78;95.36;98990.03;5014279;28;20122;-71
2023/10/05 03:52:34;;;;;;;5.43;2.08;;;;;;;12.83;95.54;98997.47;5040726;28;20040;-71
2023/10/05 03:55:11;;;;;;;4.60;1.95;;;;;;;12.78;95.79;98998.03;5006405;28;20060;-72
2023/10/05 03:57:41;;;;;;;6.28;1.88;;;;;;;12.71;95.73;98996.31;5016741;28;20041;-72
2023/10/05 04:00:23;;;;;;;3.72;2.13;;;;;;;12.82;95.98;99004.63;4980433;28;20049;-73
2023/10/05 04:02:50;;;;;;;6.55;2.17;;;;;;;12.87;96.12;99004.09;4998709;28;20041;-73
2023/10/05 04:05:20;;;;;;;7.00;2.47;;;;;;;12.85;95.61;99006.09;4980923;28;20119;-74
2023/10/05 04:07:52;;;;;;;10.85;2.45;;;;;;;12.94;95.90;98997.81;4997426;28;20476;-74
2023/10/05 04:10:23;;;;;;;7.68;2.50;;;;;;;12.94;95.56;98996.97;4979791;28;20518;-74
2023/10/05 04:12:51;;;;;;;5.47;2.30;;;;;;;12.95;95.46;99007.44;4980403;28;20128;-74
2023/10/05 04:15:20;;;;;;;8.60;2.58;;;;;;;12.99;95.18;99002.56;4981820;28;20140;-74
2023/10/05 04:17:50;;;;;;;6.50;2.53;;;;;;;13.12;95.42;99002.72;5014565;28;20067;-74
2023/10/05 04:20:27;;;;;;;7.82;2.35;;;;;;;13.13;94.94;99002.53;5029871;28;20081;-72
2023/10/05 04:22:54;;;;;;;7.78;2.35;;;;;;;13.29;94.02;99006.81;4999290;28;20195;-73
2023/10/05 04:25:20;;;;;;;6.90;2.22;;;;;;;13.25;93.69;99005.56;4997634;28;20042;-72
2023/10/05 04:27:46;;;;;;;11.50;2.50;;;;;;;13.38;93.40;99001.16;4999483;28;20118;-72
2023/10/05 04:30:16;;;;;;;6.80;2.20;;;;;;;13.42;93.25;99002.41;4992842;28;20045;-72
2023/10/05 04:32:43;;;;;;;9.85;2.50;;;;;;;13.40;92.58;99012.47;4992890;28;20053;-69
2023/10/05 04:35:20;;;;;;;9.10;3.97;;;;;;;13.46;92.82;99001.03;4992890;28;20149;-72
2023/10/05 04:37:47;;;;;;;6.90;2.60;;;;;;;13.43;92.74;99006.75;4976866;28;20058;-71
2023/10/05 04:40:20;;;;;;;7.22;2.55;;;;;;;13.42;92.76;99005.09;4994118;28;20061;-75
2023/10/05 04:42:46;;;;;;;8.82;2.50;;;;;;;13.36;93.12;99000.50;4976678;28;20054;-72
2023/10/05 04:45:14;;;;;;;6.22;2.33;;;;;;;13.27;93.34;98999.00;4956982;28;20055;-71
2023/10/05 04:48:01;;;;;;;6.05;2.63;;;;;;;13.24;94.54;99004.72;4960303;28;20493;-72
2023/10/05 04:50:28;;;;;;;12.27;2.88;;;;;;;13.18;94.56;99013.47;4955701;28;20157;-73
2023/10/05 04:52:55;;;;;;;7.95;2.83;;;;;;;13.17;94.59;99011.00;4938898;28;20054;-73
2023/10/05 04:55:31;;;;;;;5.55;2.80;;;;;;;13.30;94.59;99022.63;4954826;28;20055;-72
2023/10/05 04:58:15;;;;;;;7.32;2.63;;;;;;;13.21;94.82;99020.25;4954417;28;20546;-72
2023/10/05 05:00:48;;;;;;;7.88;2.50;;;;;;;13.22;95.11;99020.06;4957107;28;20050;-71
2023/10/05 05:03:32;;;;;;;6.55;2.38;;;;;;;13.30;94.74;99016.44;4974492;28;20209;-72
2023/10/05 05:08:32;;;;;;;10.88;2.75;;;;;;;13.41;94.34;99024.78;4973533;28;20173;-73
2023/10/05 05:11:00;;;;;;;8.65;2.47;;;;;;;13.51;94.25;99033.28;4974967;28;20054;-73
2023/10/05 05:13:29;;;;;;;6.93;2.38;;;;;;;13.64;93.88;99029.09;4977067;28;20133;-73
2023/10/05 05:15:55;;;;;;;11.73;2.80;;;;;;;13.71;93.44;99019.28;4965574;28;20095;-72
2023/10/05 05:18:24;;;;;;;4.65;2.50;;;;;;;13.77;93.15;99021.19;5033929;28;20081;-72
2023/10/05 05:20:53;;;;;;;6.60;2.55;;;;;;;13.77;93.53;99023.88;5018074;28;20071;-72
2023/10/05 05:23:20;;;;;;;12.15;3.22;;;;;;;13.91;92.92;99026.44;5017911;28;20063;-73
2023/10/05 05:25:54;;;;;;;8.18;2.60;;;;;;;14.05;93.52;99022.03;5033560;28;20045;-72
2023/10/05 05:28:21;;;;;;;8.18;2.85;;;;;;;14.16;92.74;99029.50;5017955;28;20468;-72
2023/10/05 05:30:47;;;;;;;5.93;2.70;;;;;;;14.25;92.62;99028.34;5017103;28;20053;-73
2023/10/05 05:33:13;;;;;;;5.40;2.38;;;;;;;14.33;91.21;99033.56;4984388;28;20464;-73
2023/10/05 05:35:40;;;;;;;7.18;2.20;;;;;;;14.43;90.84;99026.00;4984389;28;20037;-73
2023/10/05 05:38:09;;;;;;;5.00;2.47;;;;;;;14.45;91.05;99032.78;5019052;28;20044;-73
2023/10/05 05:40:37;;;;;;;12.40;2.97;;;;;;;14.70;90.00;99036.63;4987663;28;20057;-74
2023/10/05 05:43:09;;;;;;;4.78;1.90;;;;;;;14.93;88.64;99044.31;5018655;28;20562;-75
2023/10/05 05:45:42;;;;;;;8.40;2.13;;;;;;;14.70;89.25;99033.94;5035618;28;20076;-74
2023/10/05 05:48:16;;;;;;;9.38;2.00;;;;;;;14.99;88.02;99046.22;5019256;28;20037;-75
2023/10/05 05:50:46;;;;;;;7.30;2.20;;;;;;;14.95;87.90;99044.94;5019556;28;20056;-74
2023/10/05 05:53:12;;;;;;;4.70;2.38;;;;;;;15.10;86.98;99043.78;4963223;28;20401;-74
2023/10/05 05:55:43;;;;;;;6.88;2.20;;;;;;;15.35;86.34;99043.22;4979440;28;20507;-74
2023/10/05 05:58:14;;;;;;;4.15;2.65;;;;;;;15.36;85.50;99047.56;4963143;28;20121;-74
2023/10/05 06:00:40;;;;;;;4.47;2.28;;;;;;;15.49;84.96;99045.75;4961075;28;20155;-73
2023/10/05 06:03:11;;;;;;;10.07;2.40;;;;;;;15.69;84.03;99040.41;4993719;28;20054;-73
2023/10/05 06:05:38;;;;;;;6.70;2.10;;;;;;;15.79;82.92;99051.56;4963848;28;20042;-73
2023/10/05 06:08:08;;;;;;;8.30;2.17;;;;;;;16.09;82.00;99044.75;4947252;28;20050;-74
2023/10/05 06:10:35;;;;;;;6.65;2.13;;;;;;;16.46;80.94;99052.16;4980053;28;20140;-74
2023/10/05 06:13:05;;;;;;;6.00;2.13;;;;;;;16.85;79.67;99052.03;4963873;28;20043;-74
2023/10/05 06:15:31;;;;;;;10.55;2.30;;;;;;;16.93;78.32;99059.03;4963296;28;20050;-74
2023/10/05 06:17:59;;;;;;;11.23;2.58;;;;;;;16.92;77.85;99062.72;4979580;28;20054;-74
2023/10/05 06:20:25;;;;;;;5.25;2.10;;;;;;;16.92;78.29;99052.81;4963821;28;20111;-74
2023/10/05 06:22:51;;;;;;;8.10;2.50;;;;;;;16.70;78.40;99062.19;4962321;28;20054;-74
2023/10/05 06:25:18;;;;;;;7.68;2.65;;;;;;;16.78;78.13;99057.44;4998329;28;20064;-74
2023/10/05 06:27:51;;;;;;;5.07;2.10;;;;;;;16.67;79.24;99055.38;5032769;28;20152;-74
2023/10/05 06:30:17;;;;;;;8.73;2.67;;;;;;;16.64;78.69;99068.38;5033234;28;20053;-73
2023/10/05 06:32:43;;;;;;;6.65;1.90;;;;;;;16.60;79.70;99057.28;4983460;28;20041;-74
2023/10/05 06:35:11;;;;;;;9.18;2.25;;;;;;;16.70;79.00;99060.34;4983127;28;20154;-74
2023/10/05 06:37:39;;;;;;;8.32;2.40;;;;;;;16.90;78.17;99060.25;4999413;28;20045;-74
2023/10/05 06:40:21;;;;;;;6.82;2.15;;;;;;;17.11;78.19;99054.63;5016027;28;20041;-74
2023/10/05 06:42:51;;;;;;;6.05;2.17;;;;;;;17.30;77.25;99061.72;5017109;28;20045;-74
2023/10/05 06:45:19;;;;;;;12.27;2.70;;;;;;;17.47;76.05;99067.44;5016336;28;20152;-74
2023/10/05 06:47:46;;;;;;;7.15;2.05;;;;;;;17.41;75.88;99066.41;4983506;28;20140;-73
2023/10/05 06:50:13;;;;;;;10.18;2.30;;;;;;;17.41;75.57;99054.84;4999831;28;20472;-74
2023/10/05 06:52:42;;;;;;;9.25;2.47;;;;;;;17.09;76.13;99055.84;4999180;28;20033;-74
2023/10/05 06:55:17;;;;;;;9.18;2.22;;;;;;;17.22;75.17;99051.22;4999963;28;20459;-74
2023/10/05 06:57:45;;;;;;;12.05;2.70;;;;;;;17.40;75.11;99047.84;5000408;28;20053;-74
2023/10/05 07:00:16;;;;;;;5.93;2.25;;;;;;;17.37;75.07;99056.31;4983197;28;20056;-74
2023/10/05 07:02:44;;;;;;;6.57;2.25;;;;;;;17.44;74.88;99059.81;5015596;28;20045;-74
2023/10/05 07:05:11;;;;;;;4.65;2.03;;;;;;;17.85;73.35;99052.91;5015759;28;20060;-74
2023/10/05 07:07:37;;;;;;;12.82;2.60;;;;;;;18.13;71.97;99055.16;4982923;28;20134;-74
2023/10/05 07:10:05;;;;;;;6.97;2.50;;;;;;;17.97;71.49;99056.56;4982827;28;20052;-74
2023/10/05 07:12:32;;;;;;;8.38;2.80;;;;;;;17.79;70.18;99053.78;4999030;28;20155;-74
2023/10/05 07:14:58;;;;;;;7.30;2.33;;;;;;;18.10;70.37;99050.22;4999237;28;20411;-74
2023/10/05 07:17:27;;;;;;;9.90;2.35;;;;;;;18.24;69.46;99068.72;4998958;28;20056;-74
2023/10/05 07:19:53;;;;;;;5.30;2.08;;;;;;;17.91;69.05;99060.09;4982932;28;20037;-74
2023/10/05 07:22:20;;;;;;;7.57;2.60;;;;;;;18.21;68.62;99061.09;4998727;28;20467;-74
2023/10/05 07:24:46;;;;;;;10.88;2.65;;;;;;;18.08;68.60;99061.22;5014816;28;20107;-74
2023/10/05 07:27:13;;;;;;;4.57;1.85;;;;;;;18.10;68.51;99063.66;4998543;28;20131;-74
2023/10/05 07:29:44;;;;;;;6.97;2.30;;;;;;;17.53;69.61;99070.09;5015210;28;20045;-74
2023/10/05 07:32:13;;;;;;;4.63;1.95;;;;;;;18.03;68.60;99076.34;5014611;28;20064;-74
2023/10/05 07:34:40;;;;;;;5.30;2.30;;;;;;;18.13;67.86;99065.91;5031471;28;20065;-74
2023/10/05 07:37:10;;;;;;;8.32;2.65;;;;;;;18.52;67.06;99070.97;5031143;28;20045;-74
2023/10/05 07:39:42;;;;;;;7.53;2.47;;;;;;;18.74;66.45;99077.56;4998314;28;20049;-74
2023/10/05 07:42:09;;;;;;;5.93;2.65;;;;;;;18.75;65.21;99073.00;5016657;28;20755;-74
2023/10/05 07:44:39;;;;;;;7.65;2.53;;;;;;;18.96;64.31;99073.38;5015165;28;20045;-74
2023/10/05 07:47:06;;;;;;;6.13;2.53;;;;;;;19.13;62.66;99074.41;4998558;28;20043;-74
2023/10/05 07:49:34;;;;;;;4.70;2.20;;;;;;;19.09;62.17;99061.63;5030943;28;20054;-74
2023/10/05 07:52:03;;;;;;;6.60;2.25;;;;;;;19.29;62.09;99068.44;5014881;28;20065;-74
2023/10/05 07:54:31;;;;;;;9.75;2.97;;;;;;;19.37;61.63;99073.47;5014557;28;20483;-74
2023/10/05 07:56:56;;;;;;;6.30;2.35;;;;;;;19.52;60.42;99073.09;5014206;28;20041;-74
2023/10/05 07:59:23;;;;;;;6.60;2.30;;;;;;;19.58;60.09;99066.78;5030751;28;20045;-74
2023/10/05 08:01:52;;;;;;;9.05;2.45;;;;;;;19.24;60.47;99068.25;4997978;28;20407;-74
2023/10/05 08:04:19;;;;;;;5.93;2.42;;;;;;;18.73;61.06;99051.69;4982457;28;20072;-74
2023/10/05 08:06:45;;;;;;;5.65;2.33;;;;;;;18.16;63.70;99055.56;4981760;28;20136;-74
2023/10/05 08:09:23;;;;;;;5.55;2.00;;;;;;;18.66;63.32;99061.72;4997109;28;20436;-74
2023/10/05 08:11:50;;;;;;;7.03;2.72;;;;;;;18.91;61.41;99058.97;5032310;28;20049;-74
2023/10/05 08:14:20;;;;;;;7.28;2.40;;;;;;;18.98;61.14;99055.13;5014267;28;20041;-74
2023/10/05 08:16:48;;;;;;;;;;;;;;;19.29;60.20;99063.06;5014931;28;20124;-74
2023/10/05 08:19:15;;;;;;;6.55;2.17;;;;;;;19.28;59.78;99060.59;5030698;28;19955;-74
2023/10/05 08:21:42;;;;;;;9.82;2.50;;;;;;;19.39;58.65;99057.13;5030204;28;20148;-74
2023/10/05 08:24:09;;;;;;;9.02;2.20;;;;;;;19.14;58.00;99065.31;5030213;28;20041;-74
2023/10/05 08:26:35;;;;;;;7.32;2.40;;;;;;;19.25;59.13;99066.41;5014086;28;20475;-74
2023/10/05 08:29:01;;;;;;;7.00;2.20;;;;;;;19.19;59.02;99065.41;5016773;28;20075;-74
2023/10/05 08:31:29;;;;;;;6.82;2.20;;;;;;;18.57;60.38;99065.75;5016856;28;20077;-74
2023/10/05 08:33:55;;;;;;;6.72;2.60;;;;;;;18.72;60.64;99063.50;5000054;28;20056;-74
2023/10/05 08:36:21;;;;;;;6.55;2.33;;;;;;;18.79;60.71;99074.22;4983721;28;20154;-74
2023/10/05 08:38:54;;;;;;;7.43;2.58;;;;;;;18.74;60.33;99074.88;4983742;28;20044;-74
2023/10/05 08:41:32;;;;;;;6.63;2.50;;;;;;;19.07;59.82;99066.41;5000627;28;20048;-74
2023/10/05 08:43:59;;;;;;;10.00;2.75;;;;;;;19.00;59.17;99068.38;5000017;28;20049;-74
2023/10/05 08:46:27;;;;;;;5.50;2.38;;;;;;;19.16;58.57;99060.50;5002093;28;20632;-74
2023/10/05 08:48:55;;;;;;;6.57;2.65;;;;;;;19.28;58.20;99072.16;5003926;28;20422;-74
2023/10/05 08:51:24;;;;;;;6.45;2.70;;;;;;;19.49;57.29;99065.47;4987657;28;20047;-74
2023/10/05 08:53:57;;;;;;;6.05;2.58;;;;;;;19.49;57.06;99070.84;4987842;28;20044;-73
2023/10/05 08:56:24;;;;;;;6.45;2.65;;;;;;;19.41;56.23;99065.78;5021229;28;20412;-73
2023/10/05 08:58:52;;;;;;;4.97;2.22;;;;;;;19.13;56.71;99057.41;5019569;28;20045;-74
2023/10/05 09:01:23;;;;;;;5.47;2.53;;;;;;;18.78;57.18;99067.16;5033968;28;20105;-74
2023/10/05 09:03:53;;;;;;;8.30;2.47;;;;;;;19.06;56.61;99059.38;5033890;28;20045;-74
2023/10/05 09:06:20;;;;;;;5.88;2.25;;;;;;;19.40;55.38;99069.53;5001286;28;20044;-74
2023/10/05 09:08:52;;;;;;;8.18;2.97;;;;;;;19.60;53.91;99060.09;4985228;28;20072;-73
2023/10/05 09:11:28;;;;;;;6.75;2.50;;;;;;;20.03;53.40;99066.06;5001334;28;20085;-74
2023/10/05 09:13:58;;;;;;;6.15;2.97;;;;;;;20.18;52.14;99067.53;5033665;28;20065;-73
2023/10/05 09:16:41;;;;;;;6.30;2.42;;;;;;;19.93;51.37;99071.22;5050513;28;20056;-73
2023/10/05 09:19:26;;;;;;;5.57;2.47;;;;;;;20.07;51.68;99061.03;5003197;28;20076;-74
2023/10/05 09:22:10;;;;;;;6.95;2.60;;;;;;;19.38;52.90;99061.69;5033625;28;20134;-74
2023/10/05 09:24:37;;;;;;;6.97;2.55;;;;;;;19.78;53.05;99064.63;5019782;28;20053;-74
2023/10/05 09:27:19;;;;;;;6.47;2.35;;;;;;;20.13;52.11;99064.69;4985107;28;20045;-74
2023/10/05 09:29:46;;;;;;;5.05;2.10;;;;;;;20.09;51.97;99054.38;5033831;28;20111;-74
2023/10/05 09:32:36;;;;;;;5.45;2.50;;;;;;;20.20;50.37;99068.13;5001134;28;20041;-74
2023/10/05 09:35:04;;;;;;;8.93;2.72;;;;;;;19.98;51.16;99076.75;5002458;28;20073;-74
2023/10/05 09:37:33;;;;;;;4.95;2.20;;;;;;;20.12;51.24;99071.94;5017590;28;20092;-74
2023/10/05 09:40:00;;;;;;;6.80;2.20;;;;;;;19.86;52.02;99059.72;5033416;28;20048;-74
2023/10/05 09:42:27;;;;;;;7.50;2.38;;;;;;;19.66;51.86;99064.59;5000257;28;20088;-73
2023/10/05 09:44:52;;;;;;;7.03;2.50;;;;;;;19.83;52.01;99056.66;5016776;28;20049;-73
2023/10/05 09:47:27;;;;;;;6.70;2.30;;;;;;;19.83;52.37;99049.38;5000178;28;20045;-74
2023/10/05 09:49:59;;;;;;;7.40;2.55;;;;;;;19.92;52.21;99063.38;5017021;28;20041;-74
2023/10/05 09:52:31;;;;;;;17.02;2.40;;;;;;;19.71;52.51;99058.53;5033164;28;20037;-74
2023/10/05 09:54:57;;;;;;;7.95;2.50;;;;;;;19.68;52.52;99058.97;5017415;28;20140;-74
2023/10/05 09:57:23;;;;;;;11.05;2.60;;;;;;;19.88;51.98;99051.41;5032902;28;20488;-74
2023/10/05 09:59:59;;;;;;;6.65;2.60;;;;;;;20.46;50.00;99055.00;5017123;28;20352;-74
2023/10/05 10:02:32;;;;;;;10.43;2.75;;;;;;;23.12;45.37;99049.78;5020143;28;20056;-74
2023/10/05 10:05:00;;;;;;;8.75;2.30;;;;;;;24.43;40.20;99049.16;5035045;28;20059;-74
2023/10/05 10:07:26;;;;;;;5.15;2.28;;;;;;;23.77;40.49;99054.28;5018731;28;20049;-74
2023/10/05 10:09:55;;;;;;;8.63;2.75;;;;;;;23.73;41.20;99047.72;5035113;28;20041;-74
2023/10/05 10:12:33;;;;;;;6.20;2.42;;;;;;;23.49;41.65;99051.81;5018781;28;20417;-74
2023/10/05 10:15:00;;;;;;;5.93;2.53;;;;;;;24.62;39.91;99058.50;5034976;28;20044;-74
2023/10/05 10:17:32;;;;;;;5.03;2.50;;;;;;;26.77;34.45;99059.28;5034897;28;20049;-74
2023/10/05 10:20:17;;;;;;;7.18;2.45;;;;;;;26.67;34.19;99053.84;5018325;28;20148;-74
2023/10/05 10:23:00;;;;;;;12.95;2.53;;;;;;;27.80;31.75;99061.03;5037042;28;20122;-75
2023/10/05 10:25:38;;;;;;;11.80;2.70;;;;;;;28.52;30.63;99054.75;5002018;28;20060;-74
2023/10/05 10:28:20;;;;;;;5.43;2.92;;;;;;;26.34;32.45;99056.06;5002369;28;20053;-75
2023/10/05 10:31:11;;;;;;;8.25;2.80;;;;;;;26.39;33.21;99053.34;5002404;28;20053;-75
2023/10/05 10:33:40;;;;;;;7.25;2.75;;;;;;;27.49;31.16;99051.41;5032239;28;20110;-74
2023/10/05 10:36:22;;;;;;;4.72;2.42;;;;;;;26.66;31.53;99042.16;5000299;28;20103;-74
2023/10/05 10:38:50;;;;;;;8.95;2.50;;;;;;;24.01;34.96;99048.31;4985846;28;20049;-74
2023/10/05 10:41:23;;;;;;;15.48;2.50;;;;;;;-141.23;100.00;62281.09;5016191;28;20049;-74
2023/10/05 10:43:55;;;;;;;6.60;2.47;;;;;;;-141.23;100.00;62281.09;5000302;28;20479;-74
2023/10/05 10:46:34;;;;;;;5.28;2.25;;;;;;;-141.23;100.00;62281.09;5013941;28;20140;-74
2023/10/05 10:49:07;;;;;;;5.15;2.00;;;;;;;-141.23;100.00;62281.09;5016902;28;20128;-74
2023/10/05 10:51:43;;;;;;;4.33;1.90;;;;;;;-141.23;100.00;62281.09;5032402;28;20037;-74
2023/10/05 10:54:14;;;;;;;3.55;1.80;;;;;;;-141.23;100.00;62281.09;5000027;28;20758;-74
2023/10/05 10:56:44;;;;;;;4.47;1.90;;;;;;;-141.23;100.00;62281.09;5016545;28;20060;-74
2023/10/05 10:59:13;;;;;;;7.95;2.20;;;;;;;-141.23;100.00;62281.09;4999793;28;20041;-74
2023/10/05 11:01:42;;;;;;;5.13;2.13;;;;;;;-141.23;100.00;62281.09;4999572;28;20057;-74
2023/10/05 11:04:24;;;;;;;8.85;2.10;;;;;;;-141.23;100.00;62281.09;4999286;28;20053;-74
2023/10/05 11:07:10;;;;;;;5.95;1.70;;;;;;;-141.23;100.00;62281.09;5014958;28;20071;-74
2023/10/05 11:09:48;;;;;;;3.78;1.80;;;;;;;-141.23;100.00;62281.09;4999885;28;20065;-74
2023/10/05 11:12:17;;;;;;;4.40;1.88;;;;;;;-141.23;100.00;62281.09;4985521;28;20048;-74
2023/10/05 11:14:44;;;;;;;5.88;1.90;;;;;;;-141.23;100.00;62281.09;5015491;28;20060;-74
2023/10/05 11:17:43;;;;;;;6.70;2.20;;;;;;;-141.23;100.00;62281.09;4978566;28;20087;-74
2023/10/05 11:20:23;;;;;;;4.47;1.85;;;;;;;-141.23;100.00;62281.09;4994650;28;20061;-74
2023/10/05 11:22:54;;;;;;;5.20;2.05;;;;;;;-141.23;100.00;62281.09;4946477;28;20119;-74
2023/10/05 11:25:31;;;;;;;4.93;1.83;;;;;;;-141.23;100.00;62281.09;4946713;28;20137;-74
2023/10/05 11:27:59;;;;;;;5.45;1.95;;;;;;;-141.23;100.00;62281.09;4963676;28;20164;-74
2023/10/05 11:30:41;;;;;;;7.05;1.75;;;;;;;-141.23;100.00;62281.09;4945968;28;20053;-74
2023/10/05 11:33:16;;;;;;;3.22;1.65;;;;;;;-141.23;100.00;62281.09;4963883;28;20480;-73
2023/10/05 11:35:53;;;;;;;3.58;2.03;;;;;;;-141.23;100.00;62281.09;4995625;28;20053;-73
2023/10/05 11:38:21;;;;;;;4.88;2.00;;;;;;;-141.23;100.00;62281.09;4978242;28;20050;-74
2023/10/05 11:40:50;;;;;;;4.63;1.95;;;;;;;-141.23;100.00;62281.09;4977871;28;20071;-74
2023/10/05 11:43:18;;;;;;;7.15;1.92;;;;;;;-141.23;100.00;62281.09;4978151;28;20092;-74
2023/10/05 11:46:46;;;;;;;4.82;2.05;;;;;;;-141.23;100.00;62281.09;4962368;28;20041;-73
2023/10/05 11:48:56;;;;;;;3.25;1.88;;;;;;;-141.23;100.00;62281.09;4960200;28;20053;-74
2023/10/05 11:51:41;;;;;;;5.22;2.03;;;;;;;-141.23;100.00;62281.09;4978816;28;20436;-73
2023/10/05 11:54:12;;;;;;;4.32;1.73;;;;;;;-141.23;100.00;62281.09;4973927;28;20505;-74
2023/10/05 11:56:40;;;;;;;6.22;1.75;;;;;;;-141.23;100.00;62281.09;5030921;28;20041;-73
2023/10/05 11:59:08;;;;;;;11.00;2.10;;;;;;;-141.23;100.00;62281.09;4998521;28;20037;-74
2023/10/05 12:01:40;;;;;;;5.55;1.80;;;;;;;-141.23;100.00;62281.09;4998181;28;20049;-74
2023/10/05 12:04:09;;;;;;;6.97;1.75;;;;;;;-141.23;100.00;62281.09;5015097;28;20498;-74